CheckWX is a tool to help pilots better visualize weather data.  It is not intended as a substitute for an official pre-flight weather briefing.

05:49:22 UTC

FQIN METAR
Inhambane Airport
Inhambabe, Mozambique
Current

49 mins ago

FQIN 200500Z 00000KT 9999 FEW020 25/21 Q1014
Observed
Feb-20 @ 05:00 UTC
Visibility
10,000+ meters
Flight Rules
VFR
Cloud Levels
  • Few at 2,000' AGL
Temperature
25°C / 77°F
Dewpoint
21°C / 70°F
Humidity
79%
Altimeter
29.94" Hg
Pressure
1013.92 hPa
Previous

2 hours ago

FQIN 200400Z 00000KT 9999 FEW020 23/22 Q1014
Observed
Feb-20 @ 04:00 UTC
Visibility
10,000+ meters
Flight Rules
VFR
Cloud Levels
  • Few at 2,000' AGL
Temperature
23°C / 73°F
Dewpoint
22°C / 72°F
Humidity
94%
Altimeter
29.94" Hg
Pressure
1013.92 hPa
Previous

11 hours ago

FQIN 191900Z 24008KT 9999 FEW020 25/21 Q1013
Observed
Feb-19 @ 19:00 UTC
Wind
  • 240° at 8 KTS
Visibility
10,000+ meters
Flight Rules
VFR
Cloud Levels
  • Few at 2,000' AGL
Temperature
25°C / 77°F
Dewpoint
21°C / 70°F
Humidity
79%
Altimeter
29.91" Hg
Pressure
1012.92 hPa